PWSweather.com
Personal Weather Stations
Station Observations
SONYA
Sergiev PosadRU

Sergiev PosadRU

Lat: 56.28148651, Lon: 38.05462646

Elevation: 741

Station Type: Fine offset WH1091

High Low Average
Temperature 60.1°F15.6°F 50.9°F10.5°F 53.9°F12.2°F
Dew Point 49.3°F9.6°F 45.5°F7.5°F 47.2°F8.4°F
Winds 12.1 mph -19.5 mph - Calm Calm 1.6 mph 2.6 mph
Wind Gusts 15.9 mph25.6 mph -- 2.7 mph4.3 mph
Humidity 89% 55% 72%
Pressure 29.93 in1013.50 in 29.81 in1009.50 in -
Precipitation 0.00 in0.00 in - -
Hour Temp Dew Point Humidity Winds Wind Gusts Pressure Precip Precip Rate Daily Precip Total
10:09 AM 53.2°F11.8°C 47.9°F8.8°C 77% 3.1 mph S5.0 kmh S 5.4 mph8.7 kmh 29.81 in1009.5 mb 0.00 in0.0 mm 0.00 in0.0 mm 0.01 in0.3 mm
10:14 AM 54.1°F12.3°C 48.0°F8.9°C 74% 5.4 mph SW8.7 kmh SW 7.6 mph12.2 kmh 29.81 in1009.5 mb 0.00 in0.0 mm 0.00 in0.0 mm 0.01 in0.3 mm
10:19 AM 54.1°F12.3°C 47.8°F8.8°C 73% 3.1 mph SW5.0 kmh SW 5.4 mph8.7 kmh 29.81 in1009.5 mb 0.00 in0.0 mm 0.00 in0.0 mm 0.01 in0.3 mm
10:23 AM 54.3°F12.4°C 47.7°F8.7°C 72% 5.4 mph SW8.7 kmh SW 7.6 mph12.2 kmh 29.82 in1009.8 mb 0.00 in0.0 mm 0.00 in0.0 mm 0.01 in0.3 mm
10:24 AM 54.3°F12.4°C 47.9°F8.8°C 73% 1.6 mph S2.6 kmh S 3.1 mph5.0 kmh 29.81 in1009.5 mb 0.00 in0.0 mm 0.00 in0.0 mm 0.01 in0.3 mm
10:28 AM 54.1°F12.3°C 47.5°F8.6°C 72% 6.9 mph SW11.1 kmh SW 10.7 mph17.2 kmh 29.82 in1009.8 mb 0.00 in0.0 mm 0.00 in0.0 mm 0.01 in0.3 mm
10:29 AM 54.1°F12.3°C 47.2°F8.4°C 71% 5.4 mph SW8.7 kmh SW 6.9 mph11.1 kmh 29.81 in1009.5 mb 0.00 in0.0 mm 0.00 in0.0 mm 0.01 in0.3 mm
10:34 AM 54.9°F12.7°C 47.9°F8.8°C 71% 6.9 mph SW11.1 kmh SW 10.7 mph17.2 kmh 29.82 in1009.8 mb 0.00 in0.0 mm 0.00 in0.0 mm 0.01 in0.3 mm
10:39 AM 55.2°F12.9°C 48.0°F8.9°C 70% 3.1 mph SW5.0 kmh SW 5.4 mph8.7 kmh 29.83 in1010.2 mb 0.00 in0.0 mm 0.00 in0.0 mm 0.01 in0.3 mm
10:43 AM 55.4°F13.0°C 47.8°F8.8°C 69% 3.8 mph S6.1 kmh S 6.9 mph11.1 kmh 29.82 in1009.8 mb 0.00 in0.0 mm 0.00 in0.0 mm 0.01 in0.3 mm
10:44 AM 55.6°F13.1°C 48.3°F9.1°C 70% 3.1 mph SW5.0 kmh SW 4.5 mph7.2 kmh 29.82 in1009.8 mb 0.00 in0.0 mm 0.00 in0.0 mm 0.01 in0.3 mm
10:48 AM 55.2°F12.9°C 47.7°F8.7°C 69% 3.1 mph S5.0 kmh S 4.5 mph7.2 kmh 29.82 in1009.8 mb 0.00 in0.0 mm 0.00 in0.0 mm 0.01 in0.3 mm
10:49 AM 55.4°F13.0°C 47.8°F8.8°C 69% 6.0 mph SW9.7 kmh SW 9.2 mph14.8 kmh 29.82 in1009.8 mb 0.00 in0.0 mm 0.00 in0.0 mm 0.01 in0.3 mm
10:54 AM 55.8°F13.2°C 47.9°F8.8°C 68% 3.1 mph S5.0 kmh S 6.9 mph11.1 kmh 29.83 in1010.2 mb 0.00 in0.0 mm 0.00 in0.0 mm 0.01 in0.3 mm
10:59 AM 56.1°F13.4°C 47.9°F8.8°C 67% 4.5 mph SW7.2 kmh SW 6.0 mph9.7 kmh 29.83 in1010.2 mb 0.00 in0.0 mm 0.00 in0.0 mm 0.01 in0.3 mm
11:03 AM 55.6°F13.1°C 47.4°F8.6°C 67% 4.5 mph S7.2 kmh S 6.9 mph11.1 kmh 29.83 in1010.2 mb 0.00 in0.0 mm 0.00 in0.0 mm 0.01 in0.3 mm
11:04 AM 55.9°F13.3°C 47.8°F8.8°C 67% 3.1 mph S5.0 kmh S 4.5 mph7.2 kmh 29.83 in1010.2 mb 0.00 in0.0 mm 0.00 in0.0 mm 0.01 in0.3 mm
11:08 AM 55.4°F13.0°C 47.3°F8.5°C 67% 3.8 mph SW6.1 kmh SW 7.6 mph12.2 kmh 29.83 in1010.2 mb 0.00 in0.0 mm 0.00 in0.0 mm 0.01 in0.3 mm
11:09 AM 55.8°F13.2°C 47.9°F8.8°C 68% 2.2 mph SW3.5 kmh SW 4.5 mph7.2 kmh 29.83 in1010.2 mb 0.00 in0.0 mm 0.00 in0.0 mm 0.01 in0.3 mm
11:14 AM 55.9°F13.3°C 47.8°F8.8°C 67% 3.1 mph SW5.0 kmh SW 4.5 mph7.2 kmh 29.83 in1010.2 mb 0.00 in0.0 mm 0.00 in0.0 mm 0.01 in0.3 mm
11:19 AM 55.9°F13.3°C 47.8°F8.8°C 67% 2.2 mph SW3.5 kmh SW 3.8 mph6.1 kmh 29.83 in1010.2 mb 0.00 in0.0 mm 0.00 in0.0 mm 0.01 in0.3 mm
11:23 AM 56.5°F13.6°C 48.0°F8.9°C 66% 4.5 mph SW7.2 kmh SW 7.6 mph12.2 kmh 29.84 in1010.5 mb 0.00 in0.0 mm 0.00 in0.0 mm 0.01 in0.3 mm
11:24 AM 56.1°F13.4°C 47.9°F8.8°C 67% 1.6 mph NW2.6 kmh NW 2.2 mph3.5 kmh 29.83 in1010.2 mb 0.00 in0.0 mm 0.00 in0.0 mm 0.01 in0.3 mm
11:28 AM 55.8°F13.2°C 47.6°F8.7°C 67% 3.1 mph SW5.0 kmh SW 4.5 mph7.2 kmh 29.83 in1010.2 mb 0.00 in0.0 mm 0.00 in0.0 mm 0.01 in0.3 mm
11:29 AM 55.2°F12.9°C 47.4°F8.6°C 68% 3.8 mph SW6.1 kmh SW 6.0 mph9.7 kmh 29.83 in1010.2 mb 0.00 in0.0 mm 0.00 in0.0 mm 0.01 in0.3 mm
11:34 AM 55.0°F12.8°C 47.5°F8.6°C 69% 2.2 mph SW3.5 kmh SW 3.8 mph6.1 kmh 29.84 in1010.5 mb 0.00 in0.0 mm 0.00 in0.0 mm 0.01 in0.3 mm
11:39 AM 54.9°F12.7°C 47.3°F8.5°C 69% 3.8 mph WSW6.1 kmh WSW 5.4 mph8.7 kmh 29.84 in1010.5 mb 0.00 in0.0 mm 0.00 in0.0 mm 0.01 in0.3 mm
11:43 AM 55.0°F12.8°C 47.5°F8.6°C 69% 1.6 mph SW2.6 kmh SW 3.1 mph5.0 kmh 29.84 in1010.5 mb 0.00 in0.0 mm 0.00 in0.0 mm 0.01 in0.3 mm
11:44 AM 54.9°F12.7°C 47.3°F8.5°C 69% 3.8 mph SW6.1 kmh SW 7.6 mph12.2 kmh 29.84 in1010.5 mb 0.00 in0.0 mm 0.00 in0.0 mm 0.01 in0.3 mm
11:48 AM 55.2°F12.9°C 47.7°F8.7°C 69% 2.2 mph SW3.5 kmh SW 4.5 mph7.2 kmh 29.84 in1010.5 mb 0.00 in0.0 mm 0.00 in0.0 mm 0.01 in0.3 mm
11:49 AM 55.4°F13.0°C 47.5°F8.6°C 68% 0.7 mph S1.1 kmh S 3.1 mph5.0 kmh 29.84 in1010.5 mb 0.00 in0.0 mm 0.00 in0.0 mm 0.01 in0.3 mm
11:54 AM 57.4°F14.1°C 49.1°F9.5°C 67% 3.8 mph SW6.1 kmh SW 5.4 mph8.7 kmh 29.84 in1010.5 mb 0.00 in0.0 mm 0.00 in0.0 mm 0.01 in0.3 mm
11:59 AM 57.9°F14.4°C 48.4°F9.1°C 63% 3.8 mph SW6.1 kmh SW 7.6 mph12.2 kmh 29.84 in1010.5 mb 0.00 in0.0 mm 0.00 in0.0 mm 0.01 in0.3 mm
12:03 PM 56.7°F13.7°C 47.5°F8.6°C 64% 5.4 mph SW8.7 kmh SW 8.3 mph13.4 kmh 29.84 in1010.5 mb 0.00 in0.0 mm 0.00 in0.0 mm 0.01 in0.3 mm
12:04 PM 57.7°F14.3°C 48.2°F9.0°C 63% 6.0 mph SW9.7 kmh SW 9.2 mph14.8 kmh 29.84 in1010.5 mb 0.00 in0.0 mm 0.00 in0.0 mm 0.01 in0.3 mm
12:08 PM 56.1°F13.4°C 47.3°F8.5°C 65% 6.0 mph S9.7 kmh S 9.2 mph14.8 kmh 29.84 in1010.5 mb 0.00 in0.0 mm 0.00 in0.0 mm 0.01 in0.3 mm
12:09 PM 55.4°F13.0°C 47.0°F8.3°C 66% 7.6 mph S12.2 kmh S 12.1 mph19.5 kmh 29.84 in1010.5 mb 0.00 in0.0 mm 0.00 in0.0 mm 0.01 in0.3 mm
12:14 PM 55.0°F12.8°C 46.9°F8.3°C 67% 6.9 mph S11.1 kmh S 9.2 mph14.8 kmh 29.84 in1010.5 mb 0.00 in0.0 mm 0.00 in0.0 mm 0.01 in0.3 mm
12:19 PM 54.9°F12.7°C 47.0°F8.3°C 68% 6.0 mph SW9.7 kmh SW 7.6 mph12.2 kmh 29.84 in1010.5 mb 0.00 in0.0 mm 0.00 in0.0 mm 0.01 in0.3 mm
12:23 PM 56.1°F13.4°C 47.9°F8.8°C 67% 6.0 mph SW9.7 kmh SW 8.3 mph13.4 kmh 29.85 in1010.8 mb 0.00 in0.0 mm 0.00 in0.0 mm 0.01 in0.3 mm
12:24 PM 55.0°F12.8°C 47.2°F8.4°C 68% 4.5 mph SW7.2 kmh SW 7.6 mph12.2 kmh 29.84 in1010.5 mb 0.00 in0.0 mm 0.00 in0.0 mm 0.01 in0.3 mm
12:28 PM 56.5°F13.6°C 47.7°F8.7°C 65% 7.6 mph SW12.2 kmh SW 13.0 mph20.9 kmh 29.84 in1010.5 mb 0.00 in0.0 mm 0.00 in0.0 mm 0.01 in0.3 mm
12:29 PM 56.5°F13.6°C 47.7°F8.7°C 65% 3.8 mph SW6.1 kmh SW 8.3 mph13.4 kmh 29.84 in1010.5 mb 0.00 in0.0 mm 0.00 in0.0 mm 0.01 in0.3 mm
12:34 PM 57.4°F14.1°C 47.9°F8.8°C 63% 7.6 mph S12.2 kmh S 9.8 mph15.8 kmh 29.84 in1010.5 mb 0.00 in0.0 mm 0.00 in0.0 mm 0.01 in0.3 mm
12:39 PM 58.1°F14.5°C 48.3°F9.1°C 62% 3.1 mph SW5.0 kmh SW 4.5 mph7.2 kmh 29.84 in1010.5 mb 0.00 in0.0 mm 0.00 in0.0 mm 0.01 in0.3 mm
12:43 PM 58.6°F14.8°C 48.4°F9.1°C 61% 6.0 mph S9.7 kmh S 7.6 mph12.2 kmh 29.85 in1010.8 mb 0.00 in0.0 mm 0.00 in0.0 mm 0.01 in0.3 mm
12:44 PM 58.6°F14.8°C 48.8°F9.3°C 62% 6.9 mph NW11.1 kmh NW 9.8 mph15.8 kmh 29.84 in1010.5 mb 0.00 in0.0 mm 0.00 in0.0 mm 0.01 in0.3 mm
12:48 PM 58.6°F14.8°C 48.4°F9.1°C 61% 1.6 mph W2.6 kmh W 3.1 mph5.0 kmh 29.85 in1010.8 mb 0.00 in0.0 mm 0.00 in0.0 mm 0.01 in0.3 mm
12:49 PM 59.4°F15.2°C 49.1°F9.5°C 61% 1.6 mph NW2.6 kmh NW 3.8 mph6.1 kmh 29.84 in1010.5 mb 0.00 in0.0 mm 0.00 in0.0 mm 0.01 in0.3 mm
12:54 PM 60.1°F15.6°C 48.1°F8.9°C 56% 0.7 mph NW1.1 kmh NW 2.2 mph3.5 kmh 29.85 in1010.8 mb 0.00 in0.0 mm 0.00 in0.0 mm 0.01 in0.3 mm
12:59 PM 58.6°F14.8°C 47.4°F8.6°C 58% 1.6 mph NW2.6 kmh NW 3.1 mph5.0 kmh 29.85 in1010.8 mb 0.00 in0.0 mm 0.00 in0.0 mm 0.01 in0.3 mm
01:03 PM 57.4°F14.1°C 46.9°F8.3°C 60% 3.1 mph SW5.0 kmh SW 6.9 mph11.1 kmh 29.85 in1010.8 mb 0.00 in0.0 mm 0.00 in0.0 mm 0.01 in0.3 mm
01:04 PM 58.3°F14.6°C 47.4°F8.6°C 59% 1.6 mph S2.6 kmh S 3.8 mph6.1 kmh 29.85 in1010.8 mb 0.00 in0.0 mm 0.00 in0.0 mm 0.01 in0.3 mm
01:08 PM 56.5°F13.6°C 46.7°F8.2°C 62% 0.7 mph SW1.1 kmh SW 1.6 mph2.6 kmh 29.85 in1010.8 mb 0.00 in0.0 mm 0.00 in0.0 mm 0.01 in0.3 mm
01:09 PM 56.1°F13.4°C 46.7°F8.2°C 63% 2.2 mph SW3.5 kmh SW 3.1 mph5.0 kmh 29.85 in1010.8 mb 0.00 in0.0 mm 0.00 in0.0 mm 0.01 in0.3 mm
01:14 PM 55.8°F13.2°C 46.4°F8.0°C 63% 1.6 mph SW2.6 kmh SW 3.8 mph6.1 kmh 29.85 in1010.8 mb 0.00 in0.0 mm 0.00 in0.0 mm 0.01 in0.3 mm
01:19 PM 56.1°F13.4°C 47.0°F8.3°C 64% 0.7 mph SW1.1 kmh SW 1.6 mph2.6 kmh 29.85 in1010.8 mb 0.00 in0.0 mm 0.00 in0.0 mm 0.01 in0.3 mm
01:23 PM 56.7°F13.7°C 46.9°F8.3°C 62% 3.1 mph SW5.0 kmh SW 3.8 mph6.1 kmh 29.85 in1010.8 mb 0.00 in0.0 mm 0.00 in0.0 mm 0.01 in0.3 mm
01:24 PM 56.5°F13.6°C 47.1°F8.4°C 63% 1.6 mph SW2.6 kmh SW 3.1 mph5.0 kmh 29.85 in1010.8 mb 0.00 in0.0 mm 0.00 in0.0 mm 0.01 in0.3 mm
01:28 PM 56.5°F13.6°C 46.7°F8.2°C 62% 3.1 mph SW5.0 kmh SW 6.0 mph9.7 kmh 29.85 in1010.8 mb 0.00 in0.0 mm 0.00 in0.0 mm 0.01 in0.3 mm
01:29 PM 56.7°F13.7°C 46.9°F8.3°C 62% 2.2 mph SW3.5 kmh SW 4.5 mph7.2 kmh 29.84 in1010.5 mb 0.00 in0.0 mm 0.00 in0.0 mm 0.01 in0.3 mm
01:34 PM 58.3°F14.6°C 47.8°F8.8°C 60% 4.5 mph SW7.2 kmh SW 8.3 mph13.4 kmh 29.84 in1010.5 mb 0.00 in0.0 mm 0.00 in0.0 mm 0.01 in0.3 mm
01:39 PM 59.2°F15.1°C 46.9°F8.3°C 55% 6.0 mph S9.7 kmh S 9.2 mph14.8 kmh 29.84 in1010.5 mb 0.00 in0.0 mm 0.00 in0.0 mm 0.01 in0.3 mm
01:43 PM 58.5°F14.7°C 46.2°F7.9°C 55% 8.3 mph SW13.4 kmh SW 15.9 mph25.6 kmh 29.85 in1010.8 mb 0.00 in0.0 mm 0.00 in0.0 mm 0.01 in0.3 mm
01:44 PM 59.2°F15.1°C 46.9°F8.3°C 55% 12.1 mph S19.5 kmh S 14.5 mph23.3 kmh 29.84 in1010.5 mb 0.00 in0.0 mm 0.00 in0.0 mm 0.01 in0.3 mm
01:48 PM 57.7°F14.3°C 45.6°F7.6°C 55% 6.0 mph SSW9.7 kmh SSW 8.3 mph13.4 kmh 29.85 in1010.8 mb 0.00 in0.0 mm 0.00 in0.0 mm 0.01 in0.3 mm
01:49 PM 57.0°F13.9°C 45.6°F7.6°C 57% 5.4 mph SW8.7 kmh SW 7.6 mph12.2 kmh 29.85 in1010.8 mb 0.00 in0.0 mm 0.00 in0.0 mm 0.01 in0.3 mm
01:54 PM 56.7°F13.7°C 45.9°F7.7°C 59% 5.4 mph SW8.7 kmh SW 6.9 mph11.1 kmh 29.84 in1010.5 mb 0.00 in0.0 mm 0.00 in0.0 mm 0.01 in0.3 mm
01:58 PM 56.7°F13.7°C 46.6°F8.1°C 61% 1.6 mph SW2.6 kmh SW 2.2 mph3.5 kmh 29.84 in1010.5 mb 0.00 in0.0 mm 0.00 in0.0 mm 0.01 in0.3 mm
01:59 PM 56.7°F13.7°C 46.3°F7.9°C 60% 3.8 mph SW6.1 kmh SW 9.2 mph14.8 kmh 29.84 in1010.5 mb 0.00 in0.0 mm 0.00 in0.0 mm 0.01 in0.3 mm
02:03 PM 56.5°F13.6°C 46.7°F8.2°C 62% 3.1 mph S5.0 kmh S 4.5 mph7.2 kmh 29.84 in1010.5 mb 0.00 in0.0 mm 0.00 in0.0 mm 0.01 in0.3 mm
02:08 PM 56.1°F13.4°C 46.4°F8.0°C 62% 3.1 mph SW5.0 kmh SW 3.8 mph6.1 kmh 29.84 in1010.5 mb 0.00 in0.0 mm 0.00 in0.0 mm 0.01 in0.3 mm
02:09 PM 56.1°F13.4°C 46.4°F8.0°C 62% 3.1 mph SW5.0 kmh SW 5.4 mph8.7 kmh 29.85 in1010.8 mb 0.00 in0.0 mm 0.00 in0.0 mm 0.01 in0.3 mm
02:14 PM 56.5°F13.6°C 47.1°F8.4°C 63% Calm Calm 1.6 mph2.6 kmh 29.85 in1010.8 mb 0.00 in0.0 mm 0.00 in0.0 mm 0.01 in0.3 mm
02:19 PM 57.2°F14.0°C 47.1°F8.4°C 61% 1.6 mph SW2.6 kmh SW 2.2 mph3.5 kmh 29.85 in1010.8 mb 0.00 in0.0 mm 0.00 in0.0 mm 0.01 in0.3 mm
02:23 PM 56.7°F13.7°C 46.6°F8.1°C 61% 3.1 mph SW5.0 kmh SW 4.5 mph7.2 kmh 29.85 in1010.8 mb 0.00 in0.0 mm 0.00 in0.0 mm 0.01 in0.3 mm
02:24 PM 57.2°F14.0°C 47.1°F8.4°C 61% 3.1 mph W5.0 kmh W 5.4 mph8.7 kmh 29.85 in1010.8 mb 0.00 in0.0 mm 0.00 in0.0 mm 0.01 in0.3 mm
02:28 PM 56.5°F13.6°C 46.7°F8.2°C 62% Calm Calm 1.6 mph2.6 kmh 29.85 in1010.8 mb 0.00 in0.0 mm 0.00 in0.0 mm 0.01 in0.3 mm
02:29 PM 56.8°F13.8°C 47.1°F8.4°C 62% 0.7 mph SW1.1 kmh SW 1.6 mph2.6 kmh 29.85 in1010.8 mb 0.00 in0.0 mm 0.00 in0.0 mm 0.01 in0.3 mm
02:34 PM 57.6°F14.2°C 47.4°F8.6°C 61% 0.7 mph S1.1 kmh S 3.1 mph5.0 kmh 29.85 in1010.8 mb 0.00 in0.0 mm 0.00 in0.0 mm 0.01 in0.3 mm
02:38 PM 57.7°F14.3°C 47.6°F8.7°C 61% 1.6 mph SW2.6 kmh SW 3.1 mph5.0 kmh 29.85 in1010.8 mb 0.00 in0.0 mm 0.00 in0.0 mm 0.01 in0.3 mm
02:39 PM 57.7°F14.3°C 47.6°F8.7°C 61% Calm Calm -- 29.84 in1010.5 mb 0.00 in0.0 mm 0.00 in0.0 mm 0.01 in0.3 mm
02:43 PM 57.4°F14.1°C 47.3°F8.5°C 61% 1.6 mph SW2.6 kmh SW 3.1 mph5.0 kmh 29.85 in1010.8 mb 0.00 in0.0 mm 0.00 in0.0 mm 0.01 in0.3 mm
02:48 PM 56.7°F13.7°C 46.9°F8.3°C 62% 0.7 mph SW1.1 kmh SW 1.6 mph2.6 kmh 29.85 in1010.8 mb 0.00 in0.0 mm 0.00 in0.0 mm 0.01 in0.3 mm
02:49 PM 56.5°F13.6°C 46.7°F8.2°C 62% 2.2 mph SW3.5 kmh SW 3.1 mph5.0 kmh 29.85 in1010.8 mb 0.00 in0.0 mm 0.00 in0.0 mm 0.01 in0.3 mm
02:54 PM 56.1°F13.4°C 46.7°F8.2°C 63% 0.7 mph SW1.1 kmh SW 1.6 mph2.6 kmh 29.85 in1010.8 mb 0.00 in0.0 mm 0.00 in0.0 mm 0.01 in0.3 mm
02:59 PM 56.1°F13.4°C 46.7°F8.2°C 63% 2.2 mph NW3.5 kmh NW 3.1 mph5.0 kmh 29.85 in1010.8 mb 0.00 in0.0 mm 0.00 in0.0 mm 0.01 in0.3 mm
03:03 PM 56.1°F13.4°C 46.7°F8.2°C 63% 1.6 mph S2.6 kmh S 2.2 mph3.5 kmh 29.85 in1010.8 mb 0.00 in0.0 mm 0.00 in0.0 mm 0.01 in0.3 mm
03:04 PM 56.1°F13.4°C 46.7°F8.2°C 63% 0.7 mph SW1.1 kmh SW 2.2 mph3.5 kmh 29.85 in1010.8 mb 0.00 in0.0 mm 0.00 in0.0 mm 0.01 in0.3 mm
03:08 PM 56.1°F13.4°C 46.7°F8.2°C 63% 0.7 mph NW1.1 kmh NW 1.6 mph2.6 kmh 29.85 in1010.8 mb 0.00 in0.0 mm 0.00 in0.0 mm 0.01 in0.3 mm
03:09 PM 56.5°F13.6°C 47.1°F8.4°C 63% 0.7 mph W1.1 kmh W 2.2 mph3.5 kmh 29.85 in1010.8 mb 0.00 in0.0 mm 0.00 in0.0 mm 0.01 in0.3 mm
03:14 PM 56.1°F13.4°C 46.7°F8.2°C 63% 1.6 mph S2.6 kmh S 2.2 mph3.5 kmh 29.85 in1010.8 mb 0.00 in0.0 mm 0.00 in0.0 mm 0.01 in0.3 mm
03:18 PM 56.1°F13.4°C 46.7°F8.2°C 63% 0.7 mph NW1.1 kmh NW 2.2 mph3.5 kmh 29.85 in1010.8 mb 0.00 in0.0 mm 0.00 in0.0 mm 0.01 in0.3 mm
03:19 PM 56.1°F13.4°C 46.7°F8.2°C 63% 1.6 mph SW2.6 kmh SW 3.1 mph5.0 kmh 29.85 in1010.8 mb 0.00 in0.0 mm 0.00 in0.0 mm 0.01 in0.3 mm
03:23 PM 56.5°F13.6°C 47.1°F8.4°C 63% 1.6 mph SW2.6 kmh SW 3.1 mph5.0 kmh 29.85 in1010.8 mb 0.00 in0.0 mm 0.00 in0.0 mm 0.01 in0.3 mm
03:28 PM 56.5°F13.6°C 47.1°F8.4°C 63% 2.2 mph NW3.5 kmh NW 3.1 mph5.0 kmh 29.85 in1010.8 mb 0.00 in0.0 mm 0.00 in0.0 mm 0.01 in0.3 mm
03:29 PM 56.1°F13.4°C 46.7°F8.2°C 63% 2.2 mph SW3.5 kmh SW 3.8 mph6.1 kmh 29.85 in1010.8 mb 0.00 in0.0 mm 0.00 in0.0 mm 0.01 in0.3 mm
03:34 PM 56.1°F13.4°C 47.0°F8.3°C 64% 3.1 mph SW5.0 kmh SW 5.4 mph8.7 kmh 29.85 in1010.8 mb 0.00 in0.0 mm 0.00 in0.0 mm 0.01 in0.3 mm
03:38 PM 55.9°F13.3°C 46.9°F8.3°C 64% 1.6 mph SW2.6 kmh SW 3.1 mph5.0 kmh 29.85 in1010.8 mb 0.00 in0.0 mm 0.00 in0.0 mm 0.01 in0.3 mm
03:39 PM 56.1°F13.4°C 47.0°F8.3°C 64% 1.6 mph SW2.6 kmh SW 2.2 mph3.5 kmh 29.85 in1010.8 mb 0.00 in0.0 mm 0.00 in0.0 mm 0.01 in0.3 mm
03:43 PM 56.1°F13.4°C 47.0°F8.3°C 64% 4.5 mph S7.2 kmh S 6.0 mph9.7 kmh 29.85 in1010.8 mb 0.00 in0.0 mm 0.00 in0.0 mm 0.01 in0.3 mm
03:48 PM 56.1°F13.4°C 47.0°F8.3°C 64% 2.2 mph SW3.5 kmh SW 3.8 mph6.1 kmh 29.85 in1010.8 mb 0.00 in0.0 mm 0.00 in0.0 mm 0.01 in0.3 mm
03:49 PM 56.1°F13.4°C 47.0°F8.3°C 64% 1.6 mph SW2.6 kmh SW 4.5 mph7.2 kmh 29.85 in1010.8 mb 0.00 in0.0 mm 0.00 in0.0 mm 0.01 in0.3 mm
03:54 PM 56.7°F13.7°C 47.5°F8.6°C 64% 2.2 mph S3.5 kmh S 4.5 mph7.2 kmh 29.85 in1010.8 mb 0.00 in0.0 mm 0.00 in0.0 mm 0.01 in0.3 mm
03:58 PM 57.2°F14.0°C 47.4°F8.6°C 62% 3.8 mph S6.1 kmh S 6.0 mph9.7 kmh 29.85 in1010.8 mb 0.00 in0.0 mm 0.00 in0.0 mm 0.01 in0.3 mm
03:59 PM 57.0°F13.9°C 47.6°F8.7°C 63% 3.8 mph S6.1 kmh S 5.4 mph8.7 kmh 29.85 in1010.8 mb 0.00 in0.0 mm 0.00 in0.0 mm 0.01 in0.3 mm
04:03 PM 57.4°F14.1°C 47.6°F8.7°C 62% 3.1 mph S5.0 kmh S 6.9 mph11.1 kmh 29.85 in1010.8 mb 0.00 in0.0 mm 0.00 in0.0 mm 0.01 in0.3 mm
04:08 PM 57.7°F14.3°C 47.9°F8.8°C 62% 3.1 mph SW5.0 kmh SW 5.4 mph8.7 kmh 29.86 in1011.2 mb 0.00 in0.0 mm 0.00 in0.0 mm 0.01 in0.3 mm
04:09 PM 57.9°F14.4°C 47.8°F8.8°C 61% 3.1 mph S5.0 kmh S 3.8 mph6.1 kmh 29.86 in1011.2 mb 0.00 in0.0 mm 0.00 in0.0 mm 0.01 in0.3 mm
04:14 PM 57.6°F14.2°C 47.7°F8.7°C 62% 0.7 mph S1.1 kmh S 1.6 mph2.6 kmh 29.85 in1010.8 mb 0.00 in0.0 mm 0.00 in0.0 mm 0.01 in0.3 mm
04:18 PM 56.5°F13.6°C 47.1°F8.4°C 63% 2.2 mph SW3.5 kmh SW 3.8 mph6.1 kmh 29.85 in1010.8 mb 0.00 in0.0 mm 0.00 in0.0 mm 0.01 in0.3 mm
04:19 PM 57.2°F14.0°C 47.4°F8.6°C 62% 1.6 mph S2.6 kmh S 3.1 mph5.0 kmh 29.85 in1010.8 mb 0.00 in0.0 mm 0.00 in0.0 mm 0.01 in0.3 mm
04:23 PM 55.8°F13.2°C 46.7°F8.2°C 64% 1.6 mph SW2.6 kmh SW 2.2 mph3.5 kmh 29.86 in1011.2 mb 0.00 in0.0 mm 0.00 in0.0 mm 0.01 in0.3 mm
04:28 PM 55.4°F13.0°C 46.7°F8.2°C 65% 1.6 mph S2.6 kmh S 2.2 mph3.5 kmh 29.85 in1010.8 mb 0.00 in0.0 mm 0.00 in0.0 mm 0.01 in0.3 mm
04:29 PM 55.2°F12.9°C 46.8°F8.2°C 66% 0.7 mph SW1.1 kmh SW 1.6 mph2.6 kmh 29.86 in1011.2 mb 0.00 in0.0 mm 0.00 in0.0 mm 0.01 in0.3 mm
04:34 PM 55.0°F12.8°C 46.9°F8.3°C 67% Calm Calm 0.7 mph1.1 kmh 29.86 in1011.2 mb 0.00 in0.0 mm 0.00 in0.0 mm 0.01 in0.3 mm
04:38 PM 54.5°F12.5°C 46.7°F8.2°C 68% Calm Calm -- 29.86 in1011.2 mb 0.00 in0.0 mm 0.00 in0.0 mm 0.01 in0.3 mm
04:39 PM 54.7°F12.6°C 46.6°F8.1°C 67% 1.6 mph S2.6 kmh S 2.2 mph3.5 kmh 29.86 in1011.2 mb 0.00 in0.0 mm 0.00 in0.0 mm 0.01 in0.3 mm
04:43 PM 54.1°F12.3°C 46.4°F8.0°C 68% Calm Calm 0.7 mph1.1 kmh 29.86 in1011.2 mb 0.00 in0.0 mm 0.00 in0.0 mm 0.01 in0.3 mm
04:48 PM 54.1°F12.3°C 46.4°F8.0°C 68% Calm Calm -- 29.86 in1011.2 mb 0.00 in0.0 mm 0.00 in0.0 mm 0.01 in0.3 mm
04:49 PM 54.0°F12.2°C 46.2°F7.9°C 68% Calm Calm -- 29.86 in1011.2 mb 0.00 in0.0 mm 0.00 in0.0 mm 0.01 in0.3 mm
04:54 PM 53.8°F12.1°C 46.3°F7.9°C 69% Calm Calm -- 29.87 in1011.5 mb 0.00 in0.0 mm 0.00 in0.0 mm 0.01 in0.3 mm
04:58 PM 53.4°F11.9°C 46.2°F7.9°C 70% Calm Calm -- 29.86 in1011.2 mb 0.00 in0.0 mm 0.00 in0.0 mm 0.01 in0.3 mm
04:59 PM 53.6°F12.0°C 46.1°F7.8°C 69% Calm Calm -- 29.86 in1011.2 mb 0.00 in0.0 mm 0.00 in0.0 mm 0.01 in0.3 mm
05:03 PM 53.2°F11.8°C 46.1°F7.8°C 70% Calm Calm -- 29.86 in1011.2 mb 0.00 in0.0 mm 0.00 in0.0 mm 0.01 in0.3 mm
05:08 PM 53.1°F11.7°C 45.9°F7.7°C 70% Calm Calm -- 29.86 in1011.2 mb 0.00 in0.0 mm 0.00 in0.0 mm 0.01 in0.3 mm
05:09 PM 53.1°F11.7°C 46.2°F7.9°C 71% Calm Calm -- 29.86 in1011.2 mb 0.00 in0.0 mm 0.00 in0.0 mm 0.01 in0.3 mm
05:14 PM 52.9°F11.6°C 46.0°F7.8°C 71% Calm Calm -- 29.86 in1011.2 mb 0.00 in0.0 mm 0.00 in0.0 mm 0.01 in0.3 mm
05:18 PM 52.7°F11.5°C 46.1°F7.8°C 72% Calm Calm -- 29.87 in1011.5 mb 0.00 in0.0 mm 0.00 in0.0 mm 0.01 in0.3 mm
05:19 PM 52.7°F11.5°C 46.1°F7.8°C 72% Calm Calm -- 29.87 in1011.5 mb 0.00 in0.0 mm 0.00 in0.0 mm 0.01 in0.3 mm
05:23 PM 52.5°F11.4°C 46.2°F7.9°C 73% Calm Calm -- 29.87 in1011.5 mb 0.00 in0.0 mm 0.00 in0.0 mm 0.01 in0.3 mm
05:28 PM 52.5°F11.4°C 46.2°F7.9°C 73% Calm Calm -- 29.87 in1011.5 mb 0.00 in0.0 mm 0.00 in0.0 mm 0.01 in0.3 mm
05:29 PM 52.3°F11.3°C 46.0°F7.8°C 73% Calm Calm -- 29.87 in1011.5 mb 0.00 in0.0 mm 0.00 in0.0 mm 0.01 in0.3 mm
05:34 PM 52.2°F11.2°C 46.1°F7.8°C 74% Calm Calm -- 29.87 in1011.5 mb 0.00 in0.0 mm 0.00 in0.0 mm 0.01 in0.3 mm
05:38 PM 52.0°F11.1°C 45.7°F7.6°C 73% Calm Calm -- 29.87 in1011.5 mb 0.00 in0.0 mm 0.00 in0.0 mm 0.01 in0.3 mm
05:39 PM 52.2°F11.2°C 46.1°F7.8°C 74% Calm Calm -- 29.87 in1011.5 mb 0.00 in0.0 mm 0.00 in0.0 mm 0.01 in0.3 mm
05:43 PM 51.8°F11.0°C 45.5°F7.5°C 73% Calm Calm -- 29.88 in1011.9 mb 0.00 in0.0 mm 0.00 in0.0 mm 0.01 in0.3 mm
05:48 PM 51.6°F10.9°C 45.6°F7.6°C 74% Calm Calm -- 29.87 in1011.5 mb 0.00 in0.0 mm 0.00 in0.0 mm 0.01 in0.3 mm
05:49 PM 51.6°F10.9°C 45.9°F7.7°C 75% Calm Calm -- 29.87 in1011.5 mb 0.00 in0.0 mm 0.00 in0.0 mm 0.01 in0.3 mm
05:54 PM 51.4°F10.8°C 45.7°F7.6°C 75% Calm Calm -- 29.88 in1011.9 mb 0.00 in0.0 mm 0.00 in0.0 mm 0.01 in0.3 mm
05:58 PM 51.6°F10.9°C 46.1°F7.8°C 76% 0.7 mph S1.1 kmh S 1.6 mph2.6 kmh 29.88 in1011.9 mb 0.00 in0.0 mm 0.00 in0.0 mm 0.01 in0.3 mm
05:59 PM 51.4°F10.8°C 46.0°F7.8°C 76% 0.7 mph S1.1 kmh S 1.6 mph2.6 kmh 29.88 in1011.9 mb 0.00 in0.0 mm 0.00 in0.0 mm 0.01 in0.3 mm
06:03 PM 51.6°F10.9°C 46.4°F8.0°C 77% Calm Calm 0.7 mph1.1 kmh 29.88 in1011.9 mb 0.00 in0.0 mm 0.00 in0.0 mm 0.01 in0.3 mm
06:08 PM 51.6°F10.9°C 46.4°F8.0°C 77% Calm Calm 0.7 mph1.1 kmh 29.88 in1011.9 mb 0.00 in0.0 mm 0.00 in0.0 mm 0.01 in0.3 mm
06:09 PM 51.6°F10.9°C 46.4°F8.0°C 77% Calm Calm -- 29.88 in1011.9 mb 0.00 in0.0 mm 0.00 in0.0 mm 0.01 in0.3 mm
06:14 PM 51.6°F10.9°C 46.4°F8.0°C 77% Calm Calm -- 29.88 in1011.9 mb 0.00 in0.0 mm 0.00 in0.0 mm 0.01 in0.3 mm
06:19 PM 51.4°F10.8°C 46.0°F7.8°C 76% Calm Calm -- 29.88 in1011.9 mb 0.00 in0.0 mm 0.00 in0.0 mm 0.01 in0.3 mm
06:23 PM 51.4°F10.8°C 46.0°F7.8°C 76% Calm Calm -- 29.88 in1011.9 mb 0.00 in0.0 mm 0.00 in0.0 mm 0.01 in0.3 mm
06:24 PM 51.4°F10.8°C 46.0°F7.8°C 76% Calm Calm -- 29.88 in1011.9 mb 0.00 in0.0 mm 0.00 in0.0 mm 0.01 in0.3 mm
06:28 PM 51.4°F10.8°C 46.2°F7.9°C 77% Calm Calm -- 29.88 in1011.9 mb 0.00 in0.0 mm 0.00 in0.0 mm 0.01 in0.3 mm
06:29 PM 51.4°F10.8°C 46.2°F7.9°C 77% Calm Calm -- 29.88 in1011.9 mb 0.00 in0.0 mm 0.00 in0.0 mm 0.01 in0.3 mm
06:34 PM 51.4°F10.8°C 46.2°F7.9°C 77% Calm Calm -- 29.88 in1011.9 mb 0.00 in0.0 mm 0.00 in0.0 mm 0.01 in0.3 mm
06:39 PM 51.4°F10.8°C 46.2°F7.9°C 77% Calm Calm -- 29.88 in1011.9 mb 0.00 in0.0 mm 0.00 in0.0 mm 0.01 in0.3 mm
06:43 PM 51.3°F10.7°C 46.0°F7.8°C 77% Calm Calm -- 29.88 in1011.9 mb 0.00 in0.0 mm 0.00 in0.0 mm 0.01 in0.3 mm
06:44 PM 51.3°F10.7°C 46.0°F7.8°C 77% Calm Calm -- 29.89 in1012.2 mb 0.00 in0.0 mm 0.00 in0.0 mm 0.01 in0.3 mm
06:48 PM 51.3°F10.7°C 46.0°F7.8°C 77% Calm Calm -- 29.89 in1012.2 mb 0.00 in0.0 mm 0.00 in0.0 mm 0.01 in0.3 mm
06:49 PM 51.3°F10.7°C 46.0°F7.8°C 77% Calm Calm -- 29.88 in1011.9 mb 0.00 in0.0 mm 0.00 in0.0 mm 0.01 in0.3 mm
06:54 PM 51.1°F10.6°C 45.9°F7.7°C 77% Calm Calm -- 29.89 in1012.2 mb 0.00 in0.0 mm 0.00 in0.0 mm 0.01 in0.3 mm
06:59 PM 51.1°F10.6°C 46.1°F7.8°C 78% Calm Calm -- 29.89 in1012.2 mb 0.00 in0.0 mm 0.00 in0.0 mm 0.01 in0.3 mm
07:03 PM 50.9°F10.5°C 45.9°F7.7°C 78% Calm Calm -- 29.89 in1012.2 mb 0.00 in0.0 mm 0.00 in0.0 mm 0.01 in0.3 mm
07:04 PM 51.1°F10.6°C 46.1°F7.8°C 78% Calm Calm -- 29.89 in1012.2 mb 0.00 in0.0 mm 0.00 in0.0 mm 0.01 in0.3 mm
07:08 PM 50.9°F10.5°C 46.2°F7.9°C 79% Calm Calm 1.6 mph2.6 kmh 29.89 in1012.2 mb 0.00 in0.0 mm 0.00 in0.0 mm 0.01 in0.3 mm
07:09 PM 51.1°F10.6°C 46.4°F8.0°C 79% Calm Calm -- 29.89 in1012.2 mb 0.00 in0.0 mm 0.00 in0.0 mm 0.01 in0.3 mm
07:14 PM 51.1°F10.6°C 46.4°F8.0°C 79% Calm Calm -- 29.89 in1012.2 mb 0.00 in0.0 mm 0.00 in0.0 mm 0.01 in0.3 mm
07:19 PM 51.3°F10.7°C 46.5°F8.1°C 79% Calm Calm 0.7 mph1.1 kmh 29.89 in1012.2 mb 0.00 in0.0 mm 0.00 in0.0 mm 0.01 in0.3 mm
07:23 PM 51.3°F10.7°C 46.8°F8.2°C 80% 0.7 mph S1.1 kmh S 1.6 mph2.6 kmh 29.88 in1011.9 mb 0.00 in0.0 mm 0.00 in0.0 mm 0.01 in0.3 mm
07:24 PM 51.3°F10.7°C 46.5°F8.1°C 79% Calm Calm 0.7 mph1.1 kmh 29.89 in1012.2 mb 0.00 in0.0 mm 0.00 in0.0 mm 0.01 in0.3 mm
07:28 PM 51.4°F10.8°C 47.0°F8.3°C 80% Calm Calm -- 29.90 in1012.5 mb 0.00 in0.0 mm 0.00 in0.0 mm 0.01 in0.3 mm
07:29 PM 51.4°F10.8°C 47.0°F8.3°C 80% Calm Calm 0.7 mph1.1 kmh 29.90 in1012.5 mb 0.00 in0.0 mm 0.00 in0.0 mm 0.01 in0.3 mm
07:34 PM 51.6°F10.9°C 46.9°F8.3°C 79% Calm Calm 0.7 mph1.1 kmh 29.90 in1012.5 mb 0.00 in0.0 mm 0.00 in0.0 mm 0.01 in0.3 mm
07:39 PM 51.6°F10.9°C 46.9°F8.3°C 79% Calm Calm -- 29.89 in1012.2 mb 0.00 in0.0 mm 0.00 in0.0 mm 0.01 in0.3 mm
07:43 PM 51.4°F10.8°C 46.7°F8.2°C 79% Calm Calm -- 29.90 in1012.5 mb 0.00 in0.0 mm 0.00 in0.0 mm 0.01 in0.3 mm
07:44 PM 51.6°F10.9°C 46.9°F8.3°C 79% Calm Calm -- 29.90 in1012.5 mb 0.00 in0.0 mm 0.00 in0.0 mm 0.01 in0.3 mm
07:48 PM 51.4°F10.8°C 46.7°F8.2°C 79% Calm Calm -- 29.89 in1012.2 mb 0.00 in0.0 mm 0.00 in0.0 mm 0.01 in0.3 mm
07:49 PM 51.4°F10.8°C 46.7°F8.2°C 79% 0.7 mph SW1.1 kmh SW 1.6 mph2.6 kmh 29.89 in1012.2 mb 0.00 in0.0 mm 0.00 in0.0 mm 0.01 in0.3 mm
07:54 PM 51.6°F10.9°C 46.9°F8.3°C 79% Calm Calm -- 29.90 in1012.5 mb 0.00 in0.0 mm 0.00 in0.0 mm 0.01 in0.3 mm
07:59 PM 51.6°F10.9°C 46.9°F8.3°C 79% Calm Calm -- 29.90 in1012.5 mb 0.00 in0.0 mm 0.00 in0.0 mm 0.01 in0.3 mm
08:03 PM 51.6°F10.9°C 46.9°F8.3°C 79% Calm Calm -- 29.90 in1012.5 mb 0.00 in0.0 mm 0.00 in0.0 mm 0.01 in0.3 mm
08:04 PM 51.6°F10.9°C 46.9°F8.3°C 79% Calm Calm -- 29.90 in1012.5 mb 0.00 in0.0 mm 0.00 in0.0 mm 0.01 in0.3 mm
08:08 PM 51.6°F10.9°C 46.9°F8.3°C 79% Calm Calm -- 29.90 in1012.5 mb 0.00 in0.0 mm 0.00 in0.0 mm 0.01 in0.3 mm
08:09 PM 51.6°F10.9°C 46.9°F8.3°C 79% Calm Calm -- 29.90 in1012.5 mb 0.00 in0.0 mm 0.00 in0.0 mm 0.01 in0.3 mm
08:14 PM 51.6°F10.9°C 46.9°F8.3°C 79% Calm Calm 0.7 mph1.1 kmh 29.91 in1012.9 mb 0.00 in0.0 mm 0.00 in0.0 mm 0.01 in0.3 mm
08:19 PM 51.6°F10.9°C 46.9°F8.3°C 79% Calm Calm -- 29.91 in1012.9 mb 0.00 in0.0 mm 0.00 in0.0 mm 0.01 in0.3 mm
08:23 PM 51.6°F10.9°C 47.1°F8.4°C 80% Calm Calm 0.7 mph1.1 kmh 29.91 in1012.9 mb 0.00 in0.0 mm 0.00 in0.0 mm 0.01 in0.3 mm
08:24 PM 51.6°F10.9°C 46.9°F8.3°C 79% Calm Calm -- 29.91 in1012.9 mb 0.00 in0.0 mm 0.00 in0.0 mm 0.01 in0.3 mm
08:28 PM 51.6°F10.9°C 47.1°F8.4°C 80% Calm Calm 0.7 mph1.1 kmh 29.90 in1012.5 mb 0.00 in0.0 mm 0.00 in0.0 mm 0.01 in0.3 mm
08:29 PM 51.6°F10.9°C 47.1°F8.4°C 80% Calm Calm -- 29.90 in1012.5 mb 0.00 in0.0 mm 0.00 in0.0 mm 0.01 in0.3 mm
08:34 PM 51.8°F11.0°C 47.1°F8.4°C 79% Calm Calm -- 29.90 in1012.5 mb 0.00 in0.0 mm 0.00 in0.0 mm 0.01 in0.3 mm
08:39 PM 51.8°F11.0°C 47.1°F8.4°C 79% Calm Calm 1.6 mph2.6 kmh 29.90 in1012.5 mb 0.00 in0.0 mm 0.00 in0.0 mm 0.01 in0.3 mm
08:43 PM 52.0°F11.1°C 47.2°F8.4°C 79% 0.7 mph SW1.1 kmh SW 1.6 mph2.6 kmh 29.91 in1012.9 mb 0.00 in0.0 mm 0.00 in0.0 mm 0.01 in0.3 mm
08:44 PM 51.8°F11.0°C 47.1°F8.4°C 79% 0.7 mph SW1.1 kmh SW 1.6 mph2.6 kmh 29.90 in1012.5 mb 0.00 in0.0 mm 0.00 in0.0 mm 0.01 in0.3 mm
08:48 PM 52.2°F11.2°C 47.4°F8.6°C 79% 0.7 mph SW1.1 kmh SW 1.6 mph2.6 kmh 29.90 in1012.5 mb 0.00 in0.0 mm 0.00 in0.0 mm 0.01 in0.3 mm
08:49 PM 52.2°F11.2°C 47.4°F8.6°C 79% 1.6 mph SW2.6 kmh SW 2.2 mph3.5 kmh 29.91 in1012.9 mb 0.00 in0.0 mm 0.00 in0.0 mm 0.01 in0.3 mm
08:54 PM 52.2°F11.2°C 47.4°F8.6°C 79% 0.7 mph SW1.1 kmh SW 1.6 mph2.6 kmh 29.91 in1012.9 mb 0.00 in0.0 mm 0.00 in0.0 mm 0.01 in0.3 mm
08:59 PM 52.3°F11.3°C 47.6°F8.7°C 79% Calm Calm 0.7 mph1.1 kmh 29.90 in1012.5 mb 0.00 in0.0 mm 0.00 in0.0 mm 0.01 in0.3 mm
09:03 PM 52.3°F11.3°C 47.6°F8.7°C 79% Calm Calm -- 29.90 in1012.5 mb 0.00 in0.0 mm 0.00 in0.0 mm 0.01 in0.3 mm
09:04 PM 52.3°F11.3°C 47.6°F8.7°C 79% Calm Calm 0.7 mph1.1 kmh 29.90 in1012.5 mb 0.00 in0.0 mm 0.00 in0.0 mm 0.01 in0.3 mm
09:08 PM 52.2°F11.2°C 47.4°F8.6°C 79% Calm Calm -- 29.91 in1012.9 mb 0.00 in0.0 mm 0.00 in0.0 mm 0.01 in0.3 mm
09:09 PM 52.2°F11.2°C 47.4°F8.6°C 79% Calm Calm -- 29.90 in1012.5 mb 0.00 in0.0 mm 0.00 in0.0 mm 0.01 in0.3 mm
09:14 PM 52.2°F11.2°C 47.4°F8.6°C 79% 0.7 mph S1.1 kmh S 1.6 mph2.6 kmh 29.91 in1012.9 mb 0.00 in0.0 mm 0.00 in0.0 mm 0.01 in0.3 mm
09:19 PM 52.2°F11.2°C 47.4°F8.6°C 79% Calm Calm -- 29.91 in1012.9 mb 0.00 in0.0 mm 0.00 in0.0 mm 0.01 in0.3 mm
09:23 PM 52.0°F11.1°C 47.2°F8.4°C 79% Calm Calm -- 29.90 in1012.5 mb 0.00 in0.0 mm 0.00 in0.0 mm 0.01 in0.3 mm
09:24 PM 52.0°F11.1°C 47.2°F8.4°C 79% Calm Calm -- 29.91 in1012.9 mb 0.00 in0.0 mm 0.00 in0.0 mm 0.01 in0.3 mm
09:28 PM 51.8°F11.0°C 47.1°F8.4°C 79% Calm Calm -- 29.91 in1012.9 mb 0.00 in0.0 mm 0.00 in0.0 mm 0.01 in0.3 mm
09:29 PM 51.8°F11.0°C 47.1°F8.4°C 79% Calm Calm -- 29.90 in1012.5 mb 0.00 in0.0 mm 0.00 in0.0 mm 0.01 in0.3 mm
09:34 PM 51.6°F10.9°C 47.1°F8.4°C 80% Calm Calm -- 29.90 in1012.5 mb 0.00 in0.0 mm 0.00 in0.0 mm 0.01 in0.3 mm
09:39 PM 51.3°F10.7°C 46.8°F8.2°C 80% Calm Calm -- 29.91 in1012.9 mb 0.00 in0.0 mm 0.00 in0.0 mm 0.01 in0.3 mm
09:43 PM 51.3°F10.7°C 46.8°F8.2°C 80% Calm Calm -- 29.90 in1012.5 mb 0.00 in0.0 mm 0.00 in0.0 mm 0.01 in0.3 mm
09:44 PM 51.3°F10.7°C 46.8°F8.2°C 80% Calm Calm -- 29.91 in1012.9 mb 0.00 in0.0 mm 0.00 in0.0 mm 0.01 in0.3 mm
09:48 PM 51.3°F10.7°C 47.0°F8.3°C 81% Calm Calm -- 29.90 in1012.5 mb 0.00 in0.0 mm 0.00 in0.0 mm 0.01 in0.3 mm
09:49 PM 51.3°F10.7°C 47.0°F8.3°C 81% Calm Calm -- 29.91 in1012.9 mb 0.00 in0.0 mm 0.00 in0.0 mm 0.01 in0.3 mm
09:54 PM 51.3°F10.7°C 47.0°F8.3°C 81% Calm Calm -- 29.91 in1012.9 mb 0.00 in0.0 mm 0.00 in0.0 mm 0.01 in0.3 mm
09:59 PM 51.3°F10.7°C 47.0°F8.3°C 81% 0.7 mph S1.1 kmh S 2.2 mph3.5 kmh 29.91 in1012.9 mb 0.00 in0.0 mm 0.00 in0.0 mm 0.01 in0.3 mm
10:03 PM 51.3°F10.7°C 47.3°F8.5°C 82% 0.7 mph S1.1 kmh S 2.2 mph3.5 kmh 29.91 in1012.9 mb 0.00 in0.0 mm 0.00 in0.0 mm 0.01 in0.3 mm
10:04 PM 51.3°F10.7°C 47.3°F8.5°C 82% 0.7 mph S1.1 kmh S 1.6 mph2.6 kmh 29.91 in1012.9 mb 0.00 in0.0 mm 0.00 in0.0 mm 0.01 in0.3 mm
10:08 PM 51.3°F10.7°C 47.3°F8.5°C 82% Calm Calm 0.7 mph1.1 kmh 29.91 in1012.9 mb 0.00 in0.0 mm 0.00 in0.0 mm 0.01 in0.3 mm
10:09 PM 51.3°F10.7°C 47.3°F8.5°C 82% Calm Calm -- 29.91 in1012.9 mb 0.00 in0.0 mm 0.00 in0.0 mm 0.01 in0.3 mm
10:14 PM 51.3°F10.7°C 47.3°F8.5°C 82% Calm Calm -- 29.91 in1012.9 mb 0.00 in0.0 mm 0.00 in0.0 mm 0.01 in0.3 mm
10:19 PM 51.3°F10.7°C 47.5°F8.6°C 83% Calm Calm -- 29.91 in1012.9 mb 0.00 in0.0 mm 0.00 in0.0 mm 0.01 in0.3 mm
10:23 PM 51.3°F10.7°C 47.5°F8.6°C 83% Calm Calm -- 29.91 in1012.9 mb 0.00 in0.0 mm 0.00 in0.0 mm 0.01 in0.3 mm
10:24 PM 51.3°F10.7°C 47.5°F8.6°C 83% Calm Calm -- 29.92 in1013.2 mb 0.00 in0.0 mm 0.00 in0.0 mm 0.01 in0.3 mm
10:28 PM 51.3°F10.7°C 47.5°F8.6°C 83% Calm Calm -- 29.92 in1013.2 mb 0.00 in0.0 mm 0.00 in0.0 mm 0.01 in0.3 mm
10:29 PM 51.3°F10.7°C 47.5°F8.6°C 83% Calm Calm -- 29.91 in1012.9 mb 0.00 in0.0 mm 0.00 in0.0 mm 0.01 in0.3 mm
10:34 PM 51.6°F10.9°C 47.9°F8.8°C 83% 0.7 mph S1.1 kmh S 2.2 mph3.5 kmh 29.92 in1013.2 mb 0.00 in0.0 mm 0.00 in0.0 mm 0.01 in0.3 mm
10:39 PM 51.6°F10.9°C 48.1°F8.9°C 84% 1.6 mph S2.6 kmh S 3.1 mph5.0 kmh 29.92 in1013.2 mb 0.00 in0.0 mm 0.00 in0.0 mm 0.01 in0.3 mm
10:43 PM 51.8°F11.0°C 48.3°F9.1°C 84% 1.6 mph S2.6 kmh S 2.2 mph3.5 kmh 29.91 in1012.9 mb 0.00 in0.0 mm 0.00 in0.0 mm 0.01 in0.3 mm
10:44 PM 51.8°F11.0°C 48.3°F9.1°C 84% 0.7 mph S1.1 kmh S 2.2 mph3.5 kmh 29.91 in1012.9 mb 0.00 in0.0 mm 0.00 in0.0 mm 0.01 in0.3 mm
10:48 PM 51.8°F11.0°C 48.3°F9.1°C 84% 1.6 mph SW2.6 kmh SW 2.2 mph3.5 kmh 29.91 in1012.9 mb 0.00 in0.0 mm 0.00 in0.0 mm 0.01 in0.3 mm
10:49 PM 51.8°F11.0°C 48.3°F9.1°C 84% 1.6 mph S2.6 kmh S 3.1 mph5.0 kmh 29.92 in1013.2 mb 0.00 in0.0 mm 0.00 in0.0 mm 0.01 in0.3 mm
10:54 PM 51.8°F11.0°C 48.3°F9.1°C 84% 0.7 mph S1.1 kmh S 1.6 mph2.6 kmh 29.92 in1013.2 mb 0.00 in0.0 mm 0.00 in0.0 mm 0.01 in0.3 mm
10:59 PM 51.8°F11.0°C 48.5°F9.2°C 85% 0.7 mph S1.1 kmh S 1.6 mph2.6 kmh 29.91 in1012.9 mb 0.00 in0.0 mm 0.00 in0.0 mm 0.01 in0.3 mm
11:03 PM 51.8°F11.0°C 48.5°F9.2°C 85% 1.6 mph SW2.6 kmh SW 3.1 mph5.0 kmh 29.92 in1013.2 mb 0.00 in0.0 mm 0.00 in0.0 mm 0.01 in0.3 mm
11:04 PM 51.6°F10.9°C 48.6°F9.2°C 86% 1.6 mph SW2.6 kmh SW 2.2 mph3.5 kmh 29.92 in1013.2 mb 0.00 in0.0 mm 0.00 in0.0 mm 0.01 in0.3 mm
11:08 PM 51.6°F10.9°C 48.6°F9.2°C 86% 0.7 mph S1.1 kmh S 1.6 mph2.6 kmh 29.92 in1013.2 mb 0.00 in0.0 mm 0.00 in0.0 mm 0.01 in0.3 mm
11:09 PM 51.6°F10.9°C 48.6°F9.2°C 86% 1.6 mph S2.6 kmh S 2.2 mph3.5 kmh 29.92 in1013.2 mb 0.00 in0.0 mm 0.00 in0.0 mm 0.01 in0.3 mm
11:14 PM 51.6°F10.9°C 48.6°F9.2°C 86% Calm Calm 1.6 mph2.6 kmh 29.91 in1012.9 mb 0.00 in0.0 mm 0.00 in0.0 mm 0.01 in0.3 mm
11:19 PM 51.6°F10.9°C 48.8°F9.3°C 87% Calm Calm 0.7 mph1.1 kmh 29.91 in1012.9 mb 0.00 in0.0 mm 0.00 in0.0 mm 0.01 in0.3 mm
11:23 PM 51.6°F10.9°C 48.8°F9.3°C 87% Calm Calm -- 29.92 in1013.2 mb 0.00 in0.0 mm 0.00 in0.0 mm 0.01 in0.3 mm
11:24 PM 51.6°F10.9°C 48.8°F9.3°C 87% Calm Calm -- 29.92 in1013.2 mb 0.00 in0.0 mm 0.00 in0.0 mm 0.01 in0.3 mm
11:28 PM 51.6°F10.9°C 48.8°F9.3°C 87% Calm Calm -- 29.92 in1013.2 mb 0.00 in0.0 mm 0.00 in0.0 mm 0.01 in0.3 mm
11:29 PM 51.6°F10.9°C 48.8°F9.3°C 87% Calm Calm -- 29.92 in1013.2 mb 0.00 in0.0 mm 0.00 in0.0 mm 0.01 in0.3 mm
11:34 PM 51.6°F10.9°C 48.8°F9.3°C 87% Calm Calm -- 29.92 in1013.2 mb 0.00 in0.0 mm 0.00 in0.0 mm 0.01 in0.3 mm
11:39 PM 51.6°F10.9°C 48.8°F9.3°C 87% Calm Calm -- 29.93 in1013.5 mb 0.00 in0.0 mm 0.00 in0.0 mm 0.01 in0.3 mm
11:43 PM 51.3°F10.7°C 48.5°F9.2°C 87% 1.6 mph S2.6 kmh S 3.1 mph5.0 kmh 29.93 in1013.5 mb 0.00 in0.0 mm 0.00 in0.0 mm 0.01 in0.3 mm
11:44 PM 51.3°F10.7°C 48.5°F9.2°C 87% Calm Calm -- 29.92 in1013.2 mb 0.00 in0.0 mm 0.00 in0.0 mm 0.01 in0.3 mm
11:48 PM 51.3°F10.7°C 48.7°F9.3°C 88% Calm Calm 1.6 mph2.6 kmh 29.93 in1013.5 mb 0.00 in0.0 mm 0.00 in0.0 mm 0.01 in0.3 mm
11:49 PM 51.3°F10.7°C 48.7°F9.3°C 88% Calm Calm -- 29.92 in1013.2 mb 0.00 in0.0 mm 0.00 in0.0 mm 0.01 in0.3 mm
11:54 PM 51.6°F10.9°C 49.0°F9.4°C 88% 0.7 mph SW1.1 kmh SW 2.2 mph3.5 kmh 29.92 in1013.2 mb 0.00 in0.0 mm 0.00 in0.0 mm 0.01 in0.3 mm
11:59 PM 51.6°F10.9°C 49.3°F9.6°C 89% 2.2 mph S3.5 kmh S 3.1 mph5.0 kmh 29.92 in1013.2 mb 0.00 in0.0 mm 0.00 in0.0 mm 0.01 in0.3 mm